Flight Track Log - Related Links

Times and Time Zones

All times are in EDT time to prevent confusion due to time zone crossing. See the DAL268 flight status page for this flight to view local times or setup timezone preferences in your user account.

Time Position Orientation Groundspeed Altitude Reporting Facility
EDT Latitude Longitude Course Direction KTS MPH feet Rate Location/Type
Tue 01:19:41 AM 40.6370 -73.7790 North 9 10  Level FlightAware ADS-B
Tue 01:20:09 AM 40.6380 -73.7790 360° North 11 13 33 Level FlightAware ADS-B
Tue 01:21:55 AM 40.6370 -73.7790 108° East 2 2 34 Level FlightAware ADS-B
Tue 01:22:00 AM 40.5975 -73.4402 108° East  Level FlightAware Approximate
Tue 01:24:00 AM 40.5870 -73.3981 108° East  Level FlightAware Approximate
Tue 01:24:54 AM 40.6360 -73.7790 97° East  Level FlightAware ADS-B
Tue 01:25:00 AM 40.5651 -73.2158 97° East  Level FlightAware Approximate
Tue 01:27:00 AM 40.5863 -73.3951 108° East  Level FlightAware Approximate
Tue 01:28:00 AM 40.5648 -73.2126 97° East  Level FlightAware Approximate
Tue 01:29:00 AM 40.5500 -73.0240 90° East  Level FlightAware Approximate
Tue 01:30:00 AM 40.5851 -72.8448 66° East  Level FlightAware Approximate
Tue 01:30:08 AM 40.6350 -73.7770 66° East 20 23  Level FlightAware ADS-B
Tue 01:30:37 AM 40.6360 -73.7760 37° Northeast 20 23 48 Level FlightAware ADS-B
Tue 01:31:05 AM 40.6370 -73.7760 360° North 25 29 49 Level FlightAware ADS-B
Tue 01:31:25 AM 40.6380 -73.7750 37° Northeast 28 32 50 Level FlightAware ADS-B
Tue 01:32:09 AM 40.6400 -73.7730 37° Northeast 33 38 51 Level FlightAware ADS-B
Tue 01:32:36 AM 40.6420 -73.7720 21° North 30 35 53 Level FlightAware ADS-B
Tue 01:33:04 AM 40.6430 -73.7710 37° Northeast 29 33 54 Level FlightAware ADS-B
Tue 01:34:15 AM 40.6430 -73.7680 90° East 27 31 56 Level FlightAware ADS-B
Tue 01:34:48 AM 40.6430 -73.7660 90° East 22 25 59 Level FlightAware ADS-B
Tue 01:35:16 AM 40.6440 -73.7650 37° Northeast 27 31 61 Level FlightAware ADS-B
Tue 01:35:41 AM 40.6450 -73.7640 37° Northeast 18 21 62 Level FlightAware ADS-B
Tue 01:36:09 AM 40.6460 -73.7630 37° Northeast 28 32 64 Level FlightAware ADS-B
Tue 01:36:37 AM 40.6460 -73.7610 90° East 26 30 66 Level FlightAware ADS-B
Tue 01:37:56 AM 40.6480 -73.7630 323° Northwest 17 20 68 Level FlightAware ADS-B
Tue 01:40:00 AM 40.5878 -73.4011 108° East  Level FlightAware Approximate
Tue 01:41:00 AM 40.5662 -73.2282 97° East  Level FlightAware Approximate
Tue 01:42:00 AM 40.5500 -73.0490 90° East  Level FlightAware Approximate
Tue 01:43:00 AM 40.5765 -72.8773 72° East  Level FlightAware Approximate
Tue 01:44:00 AM 40.6297 -72.7110 66° East  Level FlightAware Approximate
Tue 01:45:00 AM 40.6652 -72.5391 72° East  Level FlightAware Approximate
Tue 01:46:00 AM 40.7103 -72.3654 75° East  Level FlightAware Approximate
Tue 01:47:00 AM 40.7525 -72.1902 72° East  Level FlightAware Approximate
Tue 01:48:00 AM 40.7962 -72.0155 72° East  Level FlightAware Approximate
Tue 01:49:00 AM 40.8465 -71.8439 66° East  Level FlightAware Approximate
Tue 01:50:00 AM 40.8828 -71.6686 69° East  Level FlightAware Approximate
Tue 01:51:26 AM 40.6480 -73.7650 270° West 12 14  Level FlightAware ADS-B
Tue 01:52:07 AM 40.6410 -73.7710 213° Southwest 110 127 759 Level FlightAware ADS-B
Tue 01:52:53 AM 40.6100 -73.7950 210° Southwest 176 203 1,100 1,342 Climbing FlightAware ADS-B
Tue 01:53:23 AM 40.5880 -73.8140 213° Southwest 206 237 1,700 1,227 Climbing FlightAware ADS-B
Tue 01:53:37 AM 40.5750 -73.8200 199° South 220 253 2,000 1,143 Climbing FlightAware ADS-B
Tue 01:54:05 AM 40.5460 -73.8150 173° South 240 276 2,500 900 Climbing FlightAware ADS-B
Tue 01:54:17 AM 40.5340 -73.8050 148° Southeast 259 298 2,600 667 Climbing FlightAware ADS-B
Tue 01:54:23 AM 40.5290 -73.7980 133° Southeast 266 306 2,700 1,500 Climbing FlightAware ADS-B
Tue 01:54:41 AM 40.5190 -73.7710 116° Southeast 286 329 3,200 1,935 Climbing FlightAware ADS-B
Tue 01:54:54 AM 40.5186 -73.7476 91° East 297 342 3,700 2,250 Climbing FlightAware ADS-B
Tue 01:55:05 AM 40.5233 -73.7285 72° East 301 346 4,100 2,294 Climbing FlightAware ADS-B
Tue 01:55:28 AM 40.5315 -73.6877 75° East 302 348 5,000 2,400 Climbing FlightAware ADS-B
Tue 01:55:45 AM 40.5351 -73.6567 81° East 303 349 5,700 2,323 Climbing FlightAware ADS-B
Tue 01:55:59 AM 40.5369 -73.6310 85° East 305 351 6,200 2,276 Climbing FlightAware ADS-B
Tue 01:56:14 AM 40.5385 -73.6030 86° East 308 354 6,800 2,323 Climbing FlightAware ADS-B
Tue 01:56:30 AM 40.5398 -73.5748 87° East 310 357 7,400 2,129 Climbing FlightAware ADS-B
Tue 01:56:45 AM 40.5409 -73.5464 87° East 313 360 7,900 2,077 Climbing FlightAware ADS-B
Tue 01:56:56 AM 40.5417 -73.5234 87° East 318 366 8,300 2,000 Climbing FlightAware ADS-B
Tue 01:57:03 AM 40.5428 -73.5098 84° East 320 368 8,500 2,118 Climbing FlightAware ADS-B
Tue 01:57:13 AM 40.5455 -73.4907 79° East 323 372 8,900 2,100 Climbing FlightAware ADS-B
Tue 01:57:23 AM 40.5499 -73.4716 73° East 325 374 9,200 1,895 Climbing FlightAware ADS-B
Tue 01:57:32 AM 40.5545 -73.4548 70° East 328 377 9,500 1,714 Climbing FlightAware ADS-B
Tue 01:57:44 AM 40.5623 -73.4327 65° Northeast 332 382 9,800 1,535 Climbing FlightAware ADS-B
Tue 01:58:15 AM 40.5809 -73.3762 67° East 346 398 10,600 1,279 Climbing FlightAware ADS-B
Tue 01:58:45 AM 40.6009 -73.3135 67° East 370 426 11,100 1,029 Climbing FlightAware ADS-B
Tue 01:59:25 AM 40.6290 -73.2290 66° East 403 464 11,800 1,147 Climbing FlightAware ADS-B
Tue 01:59:53 AM 40.6510 -73.1610 67° East 424 488 12,400 1,782 Climbing FlightAware ADS-B
Tue 02:01:06 AM 40.7080 -72.9840 67° East 447 514 14,800 1,960 Climbing FlightAware ADS-B
Tue 02:01:34 AM 40.7306 -72.9104 68° East 456 525 15,700 1,966 Climbing FlightAware ADS-B
Tue 02:02:04 AM 40.7549 -72.8326 68° East 464 534 16,700 2,000 Climbing FlightAware ADS-B
Tue 02:02:34 AM 40.7799 -72.7533 67° East 470 541 17,700 1,935 Climbing FlightAware ADS-B
Tue 02:03:06 AM 40.8062 -72.6681 68° East 476 548 18,700 1,742 Climbing FlightAware ADS-B
Tue 02:03:36 AM 40.8319 -72.5864 67° East 485 558 19,500 1,672 Climbing FlightAware ADS-B
Tue 02:04:07 AM 40.8579 -72.5036 67° East 490 564 20,400 1,770 Climbing FlightAware ADS-B
Tue 02:04:37 AM 40.8837 -72.4201 68° East 495 570 21,300 1,600 Climbing FlightAware ADS-B
Tue 02:05:07 AM 40.9105 -72.3323 68° East 502 578 22,000 1,011 Climbing FlightAware ADS-B
Tue 02:06:06 AM 40.9580 -72.1770 68° East 508 585 22,800 505 Climbing FlightAware ADS-B
Tue 02:06:42 AM 40.9850 -72.0890 68° East 508 585 22,800 1,500 Level FlightAware ADS-B
Tue 02:07:46 AM 41.0480 -71.8830 68° East 520 598 25,300 2,250 Climbing FlightAware ADS-B
Tue 02:08:26 AM 41.0883 -71.7475 68° East 531 611 26,700 1,056 Climbing FlightAware ADS-B
Tue 02:09:34 AM 41.1450 -71.5600 68° East 537 618 27,200 288 Climbing FlightAware ADS-B
Tue 02:10:10 AM 41.1730 -71.4670 68° East 537 618 27,200 1,671 Level FlightAware ADS-B
Tue 02:10:53 AM 41.2200 -71.3040 69° East 544 626 29,400 2,357 Climbing FlightAware ADS-B
Tue 02:11:34 AM 41.2600 -71.1700 68° East 543 625 30,500 1,407 Climbing FlightAware ADS-B
Tue 02:12:14 AM 41.2960 -71.0460 69° East 543 625 31,300 1,074 Climbing FlightAware ADS-B
Tue 02:13:09 AM 41.3460 -70.8770 68° East 544 626 32,200 1,067 Climbing FlightAware ADS-B
Tue 02:13:44 AM 41.3780 -70.7650 69° East 543 625 32,900 640 Climbing FlightAware ADS-B
Tue 02:14:24 AM 41.4140 -70.6370 69° East 543 625 33,000 73 Climbing FlightAware ADS-B
Tue 02:15:06 AM 41.4460 -70.5260 69° East 543 625 33,000  Level FlightAware ADS-B
Tue 02:16:15 AM 41.5070 -70.3120 69° East 541 623 33,000  Level FlightAware ADS-B
Tue 02:16:51 AM 41.5350 -70.2160 69° East 541 623 33,000  Level FlightAware ADS-B
Tue 02:18:02 AM 41.6080 -69.9560 69° East 33,000  Level FlightAware ADS-B
Tue 02:19:06 AM 41.6580 -69.7770 69° East 538 619 33,000  Level FlightAware ADS-B
Tue 02:19:43 AM 41.6840 -69.6790 70° East 538 619 33,000  Level FlightAware ADS-B
Tue 02:20:19 AM 41.7100 -69.5830 70° East 538 619 33,000  Level FlightAware ADS-B
Tue 02:24:45 AM 41.9530 -68.6930 70° East 538 619 33,000  Level FlightAware ADS-B
Tue 02:25:30 AM 41.9910 -68.5520 70° East 537 618 33,000  Level FlightAware ADS-B
Tue 02:26:10 AM 42.0250 -68.4230 70° East 536 617 33,000  Level FlightAware ADS-B
Tue 02:26:55 AM 42.0620 -68.2810 71° East 538 619 33,000  Level FlightAware ADS-B
Tue 02:27:35 AM 42.0950 -68.1550 71° East 541 623 33,000  Level FlightAware ADS-B
Tue 02:28:15 AM 42.1280 -68.0270 71° East 542 624 33,000  Level FlightAware ADS-B
Tue 02:28:55 AM 42.1620 -67.8970 71° East 543 625 33,000  Level FlightAware ADS-B
Tue 02:29:40 AM 42.1990 -67.7520 71° East 545 627 33,000  Level FlightAware ADS-B
Tue 02:30:22 AM 42.2320 -67.6240 71° East 545 627 33,000  Level FlightAware ADS-B
Tue 02:31:09 AM 42.2650 -67.4900 72° East 545 627 33,000  Level FlightAware ADS-B
Tue 02:31:57 AM 42.2990 -67.3590 71° East 545 627 33,000  Level FlightAware ADS-B
Tue 02:32:34 AM 42.3360 -67.2140 71° East 541 623 33,000  Level FlightAware ADS-B
Tue 02:33:14 AM 42.3680 -67.0850 71° East 540 621 33,000  Level FlightAware ADS-B
Tue 02:33:54 AM 42.4020 -66.9480 71° East 541 623 33,000  Level FlightAware ADS-B
Tue 02:34:34 AM 42.4310 -66.8290 72° East 542 624 33,000  Level FlightAware ADS-B
Tue 02:35:14 AM 42.4660 -66.6870 71° East 543 625 33,000  Level FlightAware ADS-B
Tue 02:36:14 AM 42.5110 -66.5000 72° East 544 626 33,000  Level FlightAware ADS-B
Tue 02:36:49 AM 42.5390 -66.3840 72° East 545 627 33,000  Level FlightAware ADS-B
Tue 02:37:45 AM 42.5830 -66.2020 72° East 542 624 33,000  Level FlightAware ADS-B
Tue 02:38:55 AM 42.6380 -65.9710 72° East 543 625 33,000  Level FlightAware ADS-B
Tue 02:39:39 AM 42.6690 -65.8390 72° East 542 624 33,000  Level FlightAware ADS-B
Tue 02:40:17 AM 42.6940 -65.7340 72° East 542 624 33,000  Level FlightAware ADS-B
Tue 02:40:49 AM 42.7240 -65.6060 72° East 542 624 33,000  Level FlightAware ADS-B
Tue 02:41:34 AM 42.7590 -65.4560 72° East 544 626 33,000  Level FlightAware ADS-B
Tue 02:42:14 AM 42.7890 -65.3260 73° East 544 626 33,000  Level FlightAware ADS-B
Tue 02:42:54 AM 42.8190 -65.1950 73° East 544 626 33,000  Level FlightAware ADS-B
Tue 02:43:34 AM 42.8470 -65.0710 73° East 543 625 33,000  Level FlightAware ADS-B
Tue 02:44:14 AM 42.8770 -64.9400 73° East 543 625 33,000  Level FlightAware ADS-B
Tue 02:44:59 AM 42.9110 -64.7900 73° East 544 626 33,000  Level FlightAware ADS-B
Tue 02:45:39 AM 42.9410 -64.6530 73° East 544 626 33,000  Level FlightAware ADS-B
Tue 02:46:19 AM 42.9690 -64.5280 73° East 544 626 33,000  Level FlightAware ADS-B
Tue 02:47:04 AM 43.0030 -64.3770 73° East 545 627 33,000  Level FlightAware ADS-B
Tue 02:47:39 AM 43.0280 -64.2640 73° East 546 628 33,000  Level FlightAware ADS-B
Tue 02:48:19 AM 43.0560 -64.1330 74° East 545 627 33,000  Level FlightAware ADS-B
Tue 02:48:59 AM 43.0850 -64.0000 73° East 546 628 33,000  Level FlightAware ADS-B
Tue 02:49:44 AM 43.1170 -63.8550 73° East 546 628 33,000  Level FlightAware ADS-B
Tue 02:50:24 AM 43.1460 -63.7160 74° East 547 629 33,000  Level FlightAware ADS-B
Tue 02:51:09 AM 43.1790 -63.5630 73° East 548 631 33,000  Level FlightAware ADS-B
Tue 02:51:49 AM 43.2050 -63.4360 74° East 547 629 33,000  Level FlightAware ADS-B
Tue 02:52:39 AM 43.2410 -63.2670 74° East 546 628 33,000  Level FlightAware ADS-B
Tue 02:53:24 AM 43.2720 -63.1210 74° East 546 628 33,000  Level FlightAware ADS-B
Tue 02:54:04 AM 43.2980 -62.9910 75° East 544 626 33,000  Level FlightAware ADS-B
Tue 02:54:39 AM 43.3230 -62.8720 74° East 543 625 33,000  Level FlightAware ADS-B
Tue 02:55:19 AM 43.3500 -62.7400 74° East 542 624 33,000  Level FlightAware ADS-B
Tue 02:55:59 AM 43.3780 -62.6010 74° East 541 623 33,000  Level FlightAware ADS-B
Tue 02:56:44 AM 43.4060 -62.4620 74° East 539 620 33,000  Level FlightAware ADS-B
Tue 02:57:25 AM 43.4330 -62.3270 75° East 540 621 33,000  Level FlightAware ADS-B
Tue 02:58:05 AM 43.4600 -62.1910 75° East 540 621 33,000  Level FlightAware ADS-B
Tue 02:58:52 AM 43.4900 -62.0380 75° East 542 624 33,000  Level FlightAware ADS-B
Tue 02:59:40 AM 43.5220 -61.8780 75° East 545 627 33,000  Level FlightAware ADS-B
Tue 03:00:26 AM 43.5500 -61.7330 75° East 547 629 33,000  Level FlightAware ADS-B
Tue 03:01:02 AM 43.5700 -61.6300 75° East 547 629 33,000  Level FlightAware ADS-B
Tue 03:01:38 AM 43.5900 -61.5270 75° East 547 629 33,000  Level FlightAware ADS-B
Tue 03:02:14 AM 43.6100 -61.4230 75° East 547 629 33,000  Level FlightAware ADS-B
Tue 03:03:03 AM 43.6520 -61.1990 75° East 552 635 33,000  Level FlightAware ADS-B
Tue 03:03:40 AM 43.6720 -61.0900 76° East 552 635 33,000  Level FlightAware ADS-B
Tue 03:04:28 AM 43.6970 -60.9500 76° East 552 635 33,000  Level FlightAware ADS-B
Tue 03:05:04 AM 43.7160 -60.8460 76° East 552 635 33,000  Level FlightAware ADS-B
Tue 03:05:53 AM 43.7420 -60.7030 76° East 552 635 33,000  Level FlightAware ADS-B
Tue 03:06:29 AM 43.7610 -60.5980 76° East 552 635 33,000  Level FlightAware ADS-B
Tue 03:07:17 AM 43.7860 -60.4580 76° East 552 635 33,000  Level FlightAware ADS-B
Tue 03:08:09 AM 43.8440 -60.1480 75° East 558 642 33,000  Level FlightAware ADS-B
Tue 03:08:55 AM 43.8760 -59.9710 76° East 559 643 33,000  Level FlightAware ADS-B
Tue 03:09:53 AM 43.9080 -59.7860 76° East 559 643 33,000  Level FlightAware ADS-B
Tue 03:10:29 AM 43.9270 -59.6800 76° East 559 643 33,000  Level FlightAware ADS-B
Tue 03:11:17 AM 43.9530 -59.5370 76° East 559 643 33,000  Level FlightAware ADS-B
Tue 03:11:53 AM 43.9720 -59.4310 76° East 559 643 33,000  Level FlightAware ADS-B
Tue 03:12:41 AM 43.9980 -59.2880 76° East 559 643 33,000  Level FlightAware ADS-B
Tue 03:13:19 AM 44.0340 -59.0470 78° East 563 648 33,000  Level FlightAware ADS-B
Tue 03:14:03 AM 44.0600 -58.8920 77° East 563 648 33,000  Level FlightAware ADS-B
Tue 03:14:39 AM 44.0810 -58.7650 77° East 563 648 33,000  Level FlightAware ADS-B
Tue 03:15:41 AM 44.1150 -58.5600 77° East 561 646 33,000  Level FlightAware ADS-B
Tue 03:16:21 AM 44.1370 -58.4250 77° East 561 646 33,000  Level FlightAware ADS-B
Tue 03:17:05 AM 44.1650 -58.2470 78° East 563 648 33,000  Level FlightAware ADS-B
Tue 03:17:43 AM 44.1860 -58.1130 78° East 564 649 33,000  Level FlightAware ADS-B
Tue 03:18:29 AM 44.2110 -57.9530 78° East 564 649 33,000  Level FlightAware ADS-B
Tue 03:19:03 AM 44.2300 -57.8360 77° East 566 651 33,000  Level FlightAware ADS-B
Tue 03:19:46 AM 44.2530 -57.6900 78° East 566 651 33,000  Level FlightAware ADS-B
Tue 03:20:33 AM 44.2800 -57.5080 78° East 566 651 33,000  Level FlightAware ADS-B
Tue 03:21:16 AM 44.3030 -57.3580 78° East 565 650 33,000  Level FlightAware ADS-B
Tue 03:22:27 AM 44.3380 -57.1230 78° East 562 647 33,000  Level FlightAware ADS-B
Tue 03:23:04 AM 44.3550 -57.0110 78° East 562 647 33,000  Level FlightAware ADS-B
Tue 03:23:52 AM 44.3770 -56.8660 78° East 562 647 33,000  Level FlightAware ADS-B
Tue 03:24:28 AM 44.3940 -56.7570 78° East 562 647 33,000  Level FlightAware ADS-B
Tue 03:25:16 AM 44.4160 -56.6120 78° East 562 647 33,000  Level FlightAware ADS-B
Tue 03:25:52 AM 44.4330 -56.5030 78° East 562 647 33,000  Level FlightAware ADS-B
Tue 03:26:40 AM 44.4550 -56.3570 78° East 562 647 33,000  Level FlightAware ADS-B
Tue 03:27:16 AM 44.4710 -56.2480 78° East 562 647 33,000  Level FlightAware ADS-B
Tue 03:27:52 AM 44.4880 -56.1390 78° East 562 647 33,000  Level FlightAware ADS-B
Tue 03:28:40 AM 44.5100 -55.9940 78° East 562 647 33,000  Level FlightAware ADS-B
Tue 03:29:16 AM 44.5260 -55.8850 78° East 562 647 33,000  Level FlightAware ADS-B
Tue 03:30:04 AM 44.5480 -55.7390 78° East 562 647 33,000  Level FlightAware ADS-B
Tue 03:30:40 AM 44.5650 -55.6300 78° East 562 647 33,000  Level FlightAware ADS-B
Tue 03:31:28 AM 44.5870 -55.4840 78° East 562 647 33,000  Level FlightAware ADS-B
Tue 03:32:31 AM 44.5833 -54.9500 78° East 560 644 33,000  Level Moncton Center
Tue 03:33:31 AM 44.6167 -54.7333 78° East 550 633 33,000  Level Moncton Center
Tue 03:34:31 AM 44.6333 -54.5167 84° East 550 633 33,000  Level Moncton Center
Tue 03:35:31 AM 44.6500 -54.3000 84° East 550 633 33,000  Level Moncton Center
Tue 03:36:31 AM 44.6833 -54.0833 78° East 560 644 33,000  Level Moncton Center
Tue 03:37:31 AM 44.6833 -53.8667 90° East 570 656 33,000  Level Moncton Center
Tue 03:38:31 AM 44.7000 -53.6500 84° East 550 633 33,000  Level Moncton Center
Tue 03:39:31 AM 44.7333 -53.4500 77° East 550 633 33,000  Level Moncton Center
Tue 03:40:31 AM 44.7500 -53.2333 84° East 560 644 33,000  Level Moncton Center
Tue 03:41:31 AM 44.7667 -53.0167 84° East 560 644 33,000  Level Moncton Center
Tue 03:42:31 AM 44.7833 -52.8000 84° East 560 644 33,000  Level Moncton Center
Tue 03:43:31 AM 44.8000 -52.5833 84° East 560 644 33,000  Level Moncton Center
Tue 03:44:31 AM 44.8167 -52.3667 84° East 570 656 33,000  Level Moncton Center
Tue 03:45:31 AM 44.8333 -52.1333 84° East 560 644 33,000  Level Moncton Center
Tue 03:46:31 AM 44.8500 -51.9333 83° East 560 644 33,000  Level Moncton Center
Tue 03:47:31 AM 44.8667 -51.7000 84° East 570 656 33,000  Level Moncton Center
Tue 03:48:31 AM 44.8833 -51.4833 84° East 570 656 33,000  Level Moncton Center
Tue 03:49:31 AM 44.9000 -51.2667 84° East 570 656 33,000 Level Moncton Center
Tue 03:51:00 AM 44.9360 -50.9627 84° East  Level FlightAware Approximate
Tue 03:58:00 AM 45.0675 -49.5199 79° East  Level FlightAware Approximate
Tue 03:59:00 AM 45.0956 -49.3153 79° East  Level FlightAware Approximate
Tue 04:00:00 AM 45.1234 -49.1106 79° East  Level FlightAware Approximate
Tue 04:01:00 AM 45.1508 -48.9056 79° East  Level FlightAware Approximate
Tue 04:02:00 AM 45.1778 -48.7005 79° East  Level FlightAware Approximate
Tue 04:03:00 AM 45.2044 -48.4951 79° East  Level FlightAware Approximate
Tue 04:04:00 AM 45.2307 -48.2896 80° East  Level FlightAware Approximate
Tue 04:05:00 AM 45.2566 -48.0838 80° East  Level FlightAware Approximate
Tue 04:06:00 AM 45.2822 -47.8779 80° East  Level FlightAware Approximate
Tue 04:07:00 AM 45.3073 -47.6718 80° East  Level FlightAware Approximate
Tue 04:08:00 AM 45.3321 -47.4655 80° East  Level FlightAware Approximate
Tue 04:09:00 AM 45.3565 -47.2591 80° East  Level FlightAware Approximate
Tue 04:10:00 AM 45.3806 -47.0524 81° East  Level FlightAware Approximate
Tue 04:11:00 AM 45.4043 -46.8456 81° East  Level FlightAware Approximate
Tue 04:12:00 AM 45.4276 -46.6386 81° East  Level FlightAware Approximate
Tue 04:13:00 AM 45.4505 -46.4315 81° East  Level FlightAware Approximate
Tue 04:14:00 AM 45.4732 -46.2242 81° East  Level FlightAware Approximate
Tue 04:15:00 AM 45.4957 -46.0168 81° East  Level FlightAware Approximate
Tue 04:16:00 AM 45.5178 -45.8092 81° East  Level FlightAware Approximate
Tue 04:17:00 AM 45.5396 -45.6014 81° East  Level FlightAware Approximate
Tue 04:18:00 AM 45.5609 -45.3935 82° East  Level FlightAware Approximate
Tue 04:19:00 AM 45.5819 -45.1855 82° East  Level FlightAware Approximate
Tue 04:20:00 AM 45.6026 -44.9773 82° East  Level FlightAware Approximate
Tue 04:21:00 AM 45.6228 -44.7689 82° East  Level FlightAware Approximate
Tue 04:22:00 AM 45.6427 -44.5604 82° East  Level FlightAware Approximate
Tue 04:23:00 AM 45.6622 -44.3517 82° East  Level FlightAware Approximate
Tue 04:24:00 AM 45.6813 -44.1429 82° East  Level FlightAware Approximate
Tue 04:25:00 AM 45.7000 -43.9340 83° East  Level FlightAware Approximate
Tue 04:26:00 AM 45.7183 -43.7249 83° East  Level FlightAware Approximate
Tue 04:27:00 AM 45.7363 -43.5157 83° East  Level FlightAware Approximate
Tue 04:28:00 AM 45.7539 -43.3063 83° East  Level FlightAware Approximate
Tue 04:29:00 AM 45.7711 -43.0968 83° East  Level FlightAware Approximate
Tue 04:30:00 AM 45.7879 -42.8872 83° East  Level FlightAware Approximate
Tue 04:31:00 AM 45.8043 -42.6775 84° East  Level FlightAware Approximate
Tue 04:32:00 AM 45.8208 -42.4677 83° East  Level FlightAware Approximate
Tue 04:33:00 AM 45.8381 -42.2580 83° East  Level FlightAware Approximate
Tue 04:34:00 AM 45.8551 -42.0481 83° East  Level FlightAware Approximate
Tue 04:35:00 AM 45.8717 -41.8382 83° East  Level FlightAware Approximate
Tue 04:36:00 AM 45.8879 -41.6281 84° East  Level FlightAware Approximate
Tue 04:37:00 AM 45.9037 -41.4179 84° East  Level FlightAware Approximate
Tue 04:38:00 AM 45.9191 -41.2075 84° East  Level FlightAware Approximate
Tue 04:39:00 AM 45.9341 -40.9971 84° East  Level FlightAware Approximate
Tue 04:40:00 AM 45.9488 -40.7865 84° East  Level FlightAware Approximate
Tue 04:41:00 AM 45.9630 -40.5758 84° East  Level FlightAware Approximate
Tue 04:42:00 AM 45.9769 -40.3651 85° East  Level FlightAware Approximate
Tue 04:43:00 AM 45.9904 -40.1542 85° East  Level FlightAware Approximate
Tue 04:44:00 AM 46.0025 -39.9431 86° East  Level FlightAware Approximate
Tue 04:45:00 AM 46.0114 -39.7316 86° East  Level FlightAware Approximate
Tue 04:46:00 AM 46.0200 -39.5201 87° East  Level FlightAware Approximate
Tue 04:47:00 AM 46.0281 -39.3085 87° East  Level FlightAware Approximate
Tue 04:48:00 AM 46.0359 -39.0968 87° East  Level FlightAware Approximate
Tue 04:49:00 AM 46.0433 -38.8851 87° East  Level FlightAware Approximate
Tue 04:50:00 AM 46.0503 -38.6733 87° East  Level FlightAware Approximate
Tue 04:51:00 AM 46.0569 -38.4615 87° East  Level FlightAware Approximate
Tue 04:52:00 AM 46.0631 -38.2496 88° East  Level FlightAware Approximate
Tue 04:53:00 AM 46.0689 -38.0377 88° East  Level FlightAware Approximate
Tue 04:54:00 AM 46.0743 -37.8257 88° East  Level FlightAware Approximate
Tue 04:55:00 AM 46.0793 -37.6137 88° East  Level FlightAware Approximate
Tue 04:56:00 AM 46.0840 -37.4017 88° East  Level FlightAware Approximate
Tue 04:57:00 AM 46.0882 -37.1896 88° East  Level FlightAware Approximate
Tue 04:58:00 AM 46.0921 -36.9775 88° East  Level FlightAware Approximate
Tue 04:59:00 AM 46.0956 -36.7654 89° East  Level FlightAware Approximate
Tue 05:00:00 AM 46.0986 -36.5532 89° East  Level FlightAware Approximate
Tue 05:01:00 AM 46.1013 -36.3410 89° East  Level FlightAware Approximate
Tue 05:02:00 AM 46.1036 -36.1288 89° East  Level FlightAware Approximate
Tue 05:03:00 AM 46.1055 -35.9166 89° East  Level FlightAware Approximate
Tue 05:04:00 AM 46.1070 -35.7044 89° East  Level FlightAware Approximate
Tue 05:05:00 AM 46.1081 -35.4921 89° East  Level FlightAware Approximate
Tue 05:06:00 AM 46.1088 -35.2799 90° East  Level FlightAware Approximate
Tue 05:07:00 AM 46.1091 -35.0676 90° East  Level FlightAware Approximate
Tue 05:08:00 AM 46.1091 -34.8554 90° East  Level FlightAware Approximate
Tue 05:09:00 AM 46.1086 -34.6431 90° East  Level FlightAware Approximate
Tue 05:10:00 AM 46.1077 -34.4309 90° East  Level FlightAware Approximate
Tue 05:11:00 AM 46.1065 -34.2187 90° East  Level FlightAware Approximate
Tue 05:12:00 AM 46.1048 -34.0064 91° East  Level FlightAware Approximate
Tue 05:13:00 AM 46.1028 -33.7942 91° East  Level FlightAware Approximate
Tue 05:14:00 AM 46.1004 -33.5820 91° East  Level FlightAware Approximate
Tue 05:15:00 AM 46.0975 -33.3699 91° East  Level FlightAware Approximate
Tue 05:16:00 AM 46.0943 -33.1577 91° East  Level FlightAware Approximate
Tue 05:17:00 AM 46.0907 -32.9456 91° East  Level FlightAware Approximate
Tue 05:18:00 AM 46.0867 -32.7335 91° East  Level FlightAware Approximate
Tue 05:19:00 AM 46.0823 -32.5214 92° East  Level FlightAware Approximate
Tue 05:20:00 AM 46.0776 -32.3094 92° East  Level FlightAware Approximate
Tue 05:21:00 AM 46.0724 -32.0974 92° East  Level FlightAware Approximate
Tue 05:22:00 AM 46.0668 -31.8854 92° East  Level FlightAware Approximate
Tue 05:23:00 AM 46.0609 -31.6735 92° East  Level FlightAware Approximate
Tue 05:24:00 AM 46.0545 -31.4617 92° East  Level FlightAware Approximate
Tue 05:25:00 AM 46.0478 -31.2499 93° East  Level FlightAware Approximate
Tue 05:26:00 AM 46.0406 -31.0381 93° East  Level FlightAware Approximate
Tue 05:27:00 AM 46.0331 -30.8264 93° East  Level FlightAware Approximate
Tue 05:28:00 AM 46.0252 -30.6148 93° East  Level FlightAware Approximate
Tue 05:29:00 AM 46.0169 -30.4032 93° East  Level FlightAware Approximate
Tue 05:30:00 AM 46.0082 -30.1917 93° East  Level FlightAware Approximate
Tue 05:31:00 AM 46.0008 -29.9802 87° East  Level FlightAware Approximate
Tue 05:32:00 AM 46.0094 -29.7688 87° East  Level FlightAware Approximate
Tue 05:33:00 AM 46.0177 -29.5572 87° East  Level FlightAware Approximate
Tue 05:34:00 AM 46.0255 -29.3456 87° East  Level FlightAware Approximate
Tue 05:35:00 AM 46.0330 -29.1339 87° East  Level FlightAware Approximate
Tue 05:36:00 AM 46.0400 -28.9222 87° East  Level FlightAware Approximate
Tue 05:37:00 AM 46.0467 -28.7104 87° East  Level FlightAware Approximate
Tue 05:38:00 AM 46.0530 -28.4986 87° East  Level FlightAware Approximate
Tue 05:39:00 AM 46.0589 -28.2867 88° East  Level FlightAware Approximate
Tue 05:40:00 AM 46.0644 -28.0748 88° East  Level FlightAware Approximate
Tue 05:41:00 AM 46.0695 -27.8628 88° East  Level FlightAware Approximate
Tue 05:42:00 AM 46.0742 -27.6508 88° East  Level FlightAware Approximate
Tue 05:43:00 AM 46.0785 -27.4388 88° East  Level FlightAware Approximate
Tue 05:44:00 AM 46.0824 -27.2267 88° East  Level FlightAware Approximate
Tue 05:45:00 AM 46.0860 -27.0146 89° East  Level FlightAware Approximate
Tue 05:46:00 AM 46.0891 -26.8025 89° East  Level FlightAware Approximate
Tue 05:47:00 AM 46.0919 -26.5903 89° East  Level FlightAware Approximate
Tue 05:48:00 AM 46.0942 -26.3782 89° East  Level FlightAware Approximate
Tue 05:49:00 AM 46.0962 -26.1660 89° East  Level FlightAware Approximate
Tue 05:50:00 AM 46.0978 -25.9538 89° East  Level FlightAware Approximate
Tue 05:51:00 AM 46.0989 -25.7416 89° East  Level FlightAware Approximate
Tue 05:52:00 AM 46.0997 -25.5294 90° East  Level FlightAware Approximate
Tue 05:53:00 AM 46.1001 -25.3172 90° East  Level FlightAware Approximate
Tue 05:54:00 AM 46.1001 -25.1050 90° East  Level FlightAware Approximate
Tue 05:55:00 AM 46.0997 -24.8927 90° East  Level FlightAware Approximate
Tue 05:56:00 AM 46.0988 -24.6805 90° East  Level FlightAware Approximate
Tue 05:57:00 AM 46.0976 -24.4683 90° East  Level FlightAware Approximate
Tue 05:58:00 AM 46.0959 -24.2561 91° East  Level FlightAware Approximate
Tue 05:59:00 AM 46.0938 -24.0440 91° East  Level FlightAware Approximate
Tue 06:00:00 AM 46.0914 -23.8318 91° East  Level FlightAware Approximate
Tue 06:01:00 AM 46.0886 -23.6197 91° East  Level FlightAware Approximate
Tue 06:02:00 AM 46.0853 -23.4075 91° East  Level FlightAware Approximate
Tue 06:03:00 AM 46.0817 -23.1954 91° East  Level FlightAware Approximate
Tue 06:04:00 AM 46.0777 -22.9834 91° East  Level FlightAware Approximate
Tue 06:05:00 AM 46.0733 -22.7714 92° East  Level FlightAware Approximate
Tue 06:06:00 AM 46.0685 -22.5594 92° East  Level FlightAware Approximate
Tue 06:07:00 AM 46.0644 -22.3474 91° East  Level FlightAware Approximate
Tue 06:08:00 AM 46.0606 -22.1354 91° East  Level FlightAware Approximate
Tue 06:09:00 AM 46.0563 -21.9234 92° East  Level FlightAware Approximate
Tue 06:10:00 AM 46.0517 -21.7118 92° East  Level FlightAware Approximate
Tue 06:11:00 AM 46.0467 -21.5003 92° East  Level FlightAware Approximate
Tue 06:12:00 AM 46.0413 -21.2888 92° East  Level FlightAware Approximate
Tue 06:13:00 AM 46.0356 -21.0774 92° East  Level FlightAware Approximate
Tue 06:14:00 AM 46.0294 -20.8660 92° East  Level FlightAware Approximate
Tue 06:15:00 AM 46.0228 -20.6546 92° East  Level FlightAware Approximate
Tue 06:16:00 AM 46.0159 -20.4433 93° East  Level FlightAware Approximate
Tue 06:17:00 AM 46.0085 -20.2321 93° East  Level FlightAware Approximate
Tue 06:18:00 AM 46.0008 -20.0209 93° East  Level FlightAware Approximate
Tue 06:19:00 AM 45.9667 -19.8156 104° East  Level FlightAware Approximate
Tue 06:20:00 AM 45.9295 -19.6113 105° East  Level FlightAware Approximate
Tue 06:21:00 AM 45.8919 -19.4072 105° East  Level FlightAware Approximate
Tue 06:22:00 AM 45.8539 -19.2034 105° East  Level FlightAware Approximate
Tue 06:23:00 AM 45.8155 -18.9999 105° East  Level FlightAware Approximate
Tue 06:24:00 AM 45.7768 -18.7966 105° East  Level FlightAware Approximate
Tue 06:25:00 AM 45.7378 -18.5937 105° East  Level FlightAware Approximate
Tue 06:26:00 AM 45.6983 -18.3910 105° East  Level FlightAware Approximate
Tue 06:27:00 AM 45.6586 -18.1886 106° East  Level FlightAware Approximate
Tue 06:28:00 AM 45.6184 -17.9865 106° East  Level FlightAware Approximate
Tue 06:29:00 AM 45.5779 -17.7847 106° East  Level FlightAware Approximate
Tue 06:30:00 AM 45.5371 -17.5832 106° East  Level FlightAware Approximate
Tue 06:31:00 AM 45.4960 -17.3819 106° East  Level FlightAware Approximate
Tue 06:32:00 AM 45.4547 -17.1809 106° East  Level FlightAware Approximate
Tue 06:33:00 AM 45.4130 -16.9802 106° East  Level FlightAware Approximate
Tue 06:34:00 AM 45.3710 -16.7797 107° East  Level FlightAware Approximate
Tue 06:35:00 AM 45.3287 -16.5796 107° East  Level FlightAware Approximate
Tue 06:36:00 AM 45.2859 -16.3798 107° East  Level FlightAware Approximate
Tue 06:37:00 AM 45.2429 -16.1802 107° East  Level FlightAware Approximate
Tue 06:38:00 AM 45.1995 -15.9810 107° East  Level FlightAware Approximate
Tue 06:39:00 AM 45.1557 -15.7821 107° East  Level FlightAware Approximate
Tue 06:40:00 AM 45.1116 -15.5834 107° East  Level FlightAware Approximate
Tue 06:41:00 AM 45.0670 -15.3844 108° East  Level FlightAware Approximate
Tue 06:42:00 AM 45.0221 -15.1857 108° East  Level FlightAware Approximate
Tue 06:42:25 AM 44.2740 -12.2960 108° East 564 649 33,800  Level FlightAware ADS-B
Tue 06:43:00 AM 44.9768 -14.9873 108° East  Level FlightAware Approximate
Tue 06:43:03 AM 44.2310 -12.1630 114° Southeast 562 647 34,800  Level FlightAware ADS-B
Tue 06:43:38 AM 44.1950 -12.0520 114° Southeast 557 641 35,700 960 Climbing FlightAware ADS-B
Tue 06:44:18 AM 44.1510 -11.9180 115° Southeast 560 644 36,000 212 Climbing FlightAware ADS-B
Tue 06:45:03 AM 44.1030 -11.7710 114° Southeast 559 643 36,000  Level FlightAware ADS-B
Tue 06:45:38 AM 44.0650 -11.6570 115° Southeast 557 641 36,000  Level FlightAware ADS-B
Tue 06:46:23 AM 44.0170 -11.5110 115° Southeast 556 640 36,000  Level FlightAware ADS-B
Tue 06:47:03 AM 43.9740 -11.3820 115° Southeast 555 639 36,000  Level FlightAware ADS-B
Tue 06:47:43 AM 43.9300 -11.2530 115° Southeast 557 641 36,000  Level FlightAware ADS-B
Tue 06:48:28 AM 43.8810 -11.1070 115° Southeast 557 641 36,000  Level FlightAware ADS-B
Tue 06:49:08 AM 43.8380 -10.9810 115° Southeast 557 641 36,000  Level FlightAware ADS-B
Tue 06:49:53 AM 43.7880 -10.8330 115° Southeast 559 643 36,000  Level FlightAware ADS-B
Tue 06:50:23 AM 43.7550 -10.7360 115° Southeast 560 644 36,000  Level FlightAware ADS-B
Tue 06:51:08 AM 43.7050 -10.5910 115° Southeast 560 644 36,000  Level FlightAware ADS-B
Tue 06:51:48 AM 43.6600 -10.4620 116° Southeast 560 644 36,000  Level FlightAware ADS-B
Tue 06:52:23 AM 43.6210 -10.3490 115° Southeast 561 646 36,000  Level FlightAware ADS-B
Tue 06:53:08 AM 43.5700 -10.2040 116° Southeast 561 646 36,000  Level FlightAware ADS-B
Tue 06:53:48 AM 43.5250 -10.0750 116° Southeast 560 644 36,000  Level FlightAware ADS-B
Tue 06:54:33 AM 43.4740 -9.9310 116° Southeast 561 646 36,000  Level FlightAware ADS-B
Tue 06:55:13 AM 43.4290 -9.8030 116° Southeast 560 644 36,000  Level FlightAware ADS-B
Tue 06:55:53 AM 43.3830 -9.6750 116° Southeast 560 644 36,000  Level FlightAware ADS-B
Tue 06:56:38 AM 43.3310 -9.5310 116° Southeast 560 644 36,000  Level FlightAware ADS-B
Tue 06:57:18 AM 43.2860 -9.4040 116° Southeast 560 644 36,000  Level FlightAware ADS-B
Tue 06:57:48 AM 43.2510 -9.3080 117° Southeast 560 644 36,000  Level FlightAware ADS-B
Tue 06:58:34 AM 43.1980 -9.1620 116° Southeast 560 644 36,000  Level FlightAware ADS-B
Tue 06:59:14 AM 43.1520 -9.0350 116° Southeast 559 643 36,000  Level FlightAware ADS-B
Tue 06:59:49 AM 43.1110 -8.9240 117° Southeast 559 643 36,000  Level FlightAware ADS-B
Tue 07:00:34 AM 43.0590 -8.7820 117° Southeast 558 642 36,000  Level FlightAware ADS-B
Tue 07:01:14 AM 43.0130 -8.6570 117° Southeast 556 640 36,000  Level FlightAware ADS-B
Tue 07:01:59 AM 42.9600 -8.5130 117° Southeast 555 639 36,000  Level FlightAware ADS-B
Tue 07:02:44 AM 42.9240 -8.3680 109° East 547 629 36,000  Level FlightAware ADS-B
Tue 07:03:31 AM 42.9120 -8.2180 96° East 542 624 36,000  Level FlightAware ADS-B
Tue 07:04:12 AM 42.9040 -8.0690 94° East 540 621 36,000  Level FlightAware ADS-B
Tue 07:04:53 AM 42.8970 -7.9400 94° East 538 619 36,000  Level FlightAware ADS-B
Tue 07:05:33 AM 42.8880 -7.7990 95° East 537 618 36,000  Level FlightAware ADS-B
Tue 07:06:13 AM 42.8790 -7.6640 95° East 535 616 36,000  Level FlightAware ADS-B
Tue 07:06:48 AM 42.8710 -7.5440 95° East 535 616 36,000  Level FlightAware ADS-B
Tue 07:07:48 AM 42.8580 -7.3560 95° East 535 616 36,000  Level FlightAware ADS-B
Tue 07:08:36 AM 42.8460 -7.1880 96° East 535 616 36,000  Level FlightAware ADS-B
Tue 07:09:21 AM 42.8350 -7.0310 95° East 535 616 36,000  Level FlightAware ADS-B
Tue 07:10:02 AM 42.8250 -6.8980 96° East 536 617 36,000  Level FlightAware ADS-B
Tue 07:10:41 AM 42.8150 -6.7670 96° East 536 617 36,000  Level FlightAware ADS-B
Tue 07:11:26 AM 42.8030 -6.6130 96° East 535 616 36,000  Level FlightAware ADS-B
Tue 07:12:11 AM 42.7910 -6.4620 96° East 535 616 36,000  Level FlightAware ADS-B
Tue 07:12:51 AM 42.7810 -6.3320 96° East 534 615 36,000  Level FlightAware ADS-B
Tue 07:13:36 AM 42.7690 -6.1790 96° East 535 616 36,000  Level FlightAware ADS-B
Tue 07:14:21 AM 42.7570 -6.0320 96° East 535 616 36,000  Level FlightAware ADS-B
Tue 07:15:01 AM 42.7450 -5.8950 97° East 534 615 36,000  Level FlightAware ADS-B
Tue 07:15:46 AM 42.7330 -5.7420 96° East 532 612 36,000  Level FlightAware ADS-B
Tue 07:16:26 AM 42.7220 -5.6160 97° East 531 611 36,000  Level FlightAware ADS-B
Tue 07:17:06 AM 42.7100 -5.4810 97° East 531 611 36,000  Level FlightAware ADS-B
Tue 07:18:06 AM 42.6930 -5.2860 97° East 530 610 36,000  Level FlightAware ADS-B
Tue 07:18:46 AM 42.6820 -5.1570 97° East 529 609 36,000  Level FlightAware ADS-B
Tue 07:19:31 AM 42.6680 -5.0060 97° East 528 608 36,000  Level FlightAware ADS-B
Tue 07:20:06 AM 42.6580 -4.8940 97° East 528 608 36,000  Level FlightAware ADS-B
Tue 07:20:51 AM 42.6430 -4.7400 97° East 527 606 36,000  Level FlightAware ADS-B
Tue 07:21:31 AM 42.6310 -4.6090 97° East 527 606 36,000  Level FlightAware ADS-B
Tue 07:22:11 AM 42.6180 -4.4810 98° East 527 606 36,000  Level FlightAware ADS-B
Tue 07:22:51 AM 42.6060 -4.3460 97° East 527 606 36,000  Level FlightAware ADS-B
Tue 07:23:36 AM 42.5920 -4.2030 98° East 526 605 36,000  Level FlightAware ADS-B
Tue 07:24:13 AM 42.5800 -4.0850 98° East 525 604 36,000  Level FlightAware ADS-B
Tue 07:24:56 AM 42.5650 -3.9390 98° East 524 603 36,000  Level FlightAware ADS-B
Tue 07:25:36 AM 42.5520 -3.8120 98° East 523 602 36,000  Level FlightAware ADS-B
Tue 07:26:21 AM 42.5370 -3.6660 98° East 522 601 36,000  Level FlightAware ADS-B
Tue 07:27:01 AM 42.5240 -3.5330 98° East 524 603 36,000  Level FlightAware ADS-B
Tue 07:27:36 AM 42.5120 -3.4190 98° East 523 602 36,000  Level FlightAware ADS-B
Tue 07:28:21 AM 42.4960 -3.2740 98° East 522 601 36,000  Level FlightAware ADS-B
Tue 07:29:01 AM 42.4830 -3.1550 98° East 520 598 36,000  Level FlightAware ADS-B
Tue 07:29:47 AM 42.4660 -3.0010 98° East 517 595 36,000  Level FlightAware ADS-B
Tue 07:30:28 AM 42.4490 -2.8680 100° East 514 592 36,000  Level FlightAware ADS-B
Tue 07:31:05 AM 42.4270 -2.7530 104° East 512 589 36,000  Level FlightAware ADS-B
Tue 07:31:50 AM 42.3990 -2.6140 105° East 512 589 36,000  Level FlightAware ADS-B
Tue 07:32:25 AM 42.3770 -2.5090 106° East 513 590 36,000  Level FlightAware ADS-B
Tue 07:33:05 AM 42.3510 -2.3860 106° East 514 592 36,000  Level FlightAware ADS-B
Tue 07:33:50 AM 42.3210 -2.2440 106° East 514 592 36,000  Level FlightAware ADS-B
Tue 07:34:25 AM 42.2990 -2.1360 105° East 515 593 36,000  Level FlightAware ADS-B
Tue 07:35:05 AM 42.2730 -2.0150 106° East 515 593 36,000  Level FlightAware ADS-B
Tue 07:36:04 AM 42.2330 -1.8310 106° East 513 590 36,000  Level FlightAware ADS-B
Tue 07:36:45 AM 42.2070 -1.7080 106° East 512 589 36,000  Level FlightAware ADS-B
Tue 07:37:30 AM 42.1770 -1.5700 106° East 511 588 36,000  Level FlightAware ADS-B
Tue 07:38:09 AM 42.1500 -1.4480 107° East 512 589 36,000  Level FlightAware ADS-B
Tue 07:38:54 AM 42.1200 -1.3130 107° East 512 589 36,000  Level FlightAware ADS-B
Tue 07:39:34 AM 42.0930 -1.1850 106° East 513 590 36,000  Level FlightAware ADS-B
Tue 07:40:14 AM 42.0660 -1.0660 107° East 513 590 36,000  Level FlightAware ADS-B
Tue 07:40:58 AM 42.0360 -0.9310 107° East 514 592 36,000  Level FlightAware ADS-B
Tue 07:41:38 AM 42.0080 -0.8060 107° East 513 590 36,000  Level FlightAware ADS-B
Tue 07:42:19 AM 41.9810 -0.6840 107° East 511 588 36,000  Level FlightAware ADS-B
Tue 07:43:04 AM 41.9490 -0.5450 107° East 510 587 36,000  Level FlightAware ADS-B
Tue 07:43:48 AM 41.9200 -0.4170 107° East 511 588 36,000  Level FlightAware ADS-B
Tue 07:44:28 AM 41.8900 -0.2900 108° East 511 588 36,000  Level FlightAware ADS-B
Tue 07:45:12 AM 41.8600 -0.1570 107° East 512 589 36,000  Level FlightAware ADS-B
Tue 07:45:54 AM 41.8300 -0.0300 108° East 513 590 36,000  Level FlightAware ADS-B
Tue 07:46:26 AM 41.8080 0.0640 107° East 513 590 36,000  Level FlightAware ADS-B
Tue 07:47:10 AM 41.7760 0.2010 107° East 513 590 36,000  Level FlightAware ADS-B
Tue 07:47:50 AM 41.7470 0.3210 108° East 512 589 36,000  Level FlightAware ADS-B
Tue 07:48:28 AM 41.7200 0.4360 107° East 512 589 36,000  Level FlightAware ADS-B
Tue 07:49:08 AM 41.6910 0.5570 108° East 512 589 36,000  Level FlightAware ADS-B
Tue 07:49:48 AM 41.6640 0.6720 107° East 512 589 36,000  Level FlightAware ADS-B
Tue 07:50:32 AM 41.6290 0.8060 109° East 512 589 36,000  Level FlightAware ADS-B
Tue 07:51:12 AM 41.5980 0.9260 109° East 512 589 36,000  Level FlightAware ADS-B
Tue 07:51:58 AM 41.5610 1.0650 110° East 509 586 36,000  Level FlightAware ADS-B
Tue 07:52:38 AM 41.5310 1.1810 109° East 508 585 36,000  Level FlightAware ADS-B
Tue 07:53:19 AM 41.5030 1.3040 107° East 509 586 36,000  Level FlightAware ADS-B
Tue 07:54:02 AM 41.4740 1.4330 107° East 506 582 36,000  Level FlightAware ADS-B
Tue 07:54:42 AM 41.4460 1.5520 107° East 504 580 36,000  Level FlightAware ADS-B
Tue 07:55:27 AM 41.4150 1.6840 107° East 501 577 36,000  Level FlightAware ADS-B
Tue 07:56:06 AM 41.3860 1.7990 109° East 500 575 36,000  Level FlightAware ADS-B
Tue 07:56:52 AM 41.3520 1.9330 109° East 501 577 36,000  Level FlightAware ADS-B
Tue 07:57:25 AM 41.3270 2.0290 109° East 500 575 36,000  Level FlightAware ADS-B
Tue 07:58:04 AM 41.3000 2.1470 107° East 502 578 36,000  Level FlightAware ADS-B
Tue 07:58:49 AM 41.2780 2.2790 102° East 505 581 36,000  Level FlightAware ADS-B
Tue 07:59:30 AM 41.2580 2.4070 102° East 505 581 36,000  Level FlightAware ADS-B
Tue 07:59:53 AM 41.2470 2.4740 102° East 506 582 36,000  Level FlightAware ADS-B
Tue 08:00:43 AM 41.2210 2.6280 103° East 505 581 36,000  Level FlightAware ADS-B
Tue 08:01:25 AM 41.2010 2.7460 103° East 505 581 36,000  Level FlightAware ADS-B
Tue 08:02:05 AM 41.1800 2.8670 103° East 504 580 36,000  Level FlightAware ADS-B
Tue 08:02:45 AM 41.1590 2.9910 103° East 504 580 36,000  Level FlightAware ADS-B
Tue 08:03:29 AM 41.1360 3.1230 103° East 505 581 36,000  Level FlightAware ADS-B
Tue 08:04:10 AM 41.1130 3.2530 103° East 506 582 36,000  Level FlightAware ADS-B
Tue 08:04:53 AM 41.0910 3.3800 103° East 507 583 36,000  Level FlightAware ADS-B
Tue 08:05:34 AM 41.0690 3.5040 103° East 507 583 36,000  Level FlightAware ADS-B
Tue 08:06:14 AM 41.0480 3.6250 103° East 507 583 36,000  Level FlightAware ADS-B
Tue 08:06:54 AM 41.0270 3.7420 103° East 508 585 36,000  Level FlightAware ADS-B
Tue 08:07:42 AM 41.0000 3.8940 103° East 509 586 36,000  Level FlightAware ADS-B
Tue 08:08:38 AM 40.9690 4.0600 104° East 509 586 36,000  Level FlightAware ADS-B
Tue 08:09:14 AM 40.9490 4.1720 103° East 509 586 36,000  Level FlightAware ADS-B
Tue 08:09:54 AM 40.9270 4.2930 103° East 510 587 36,000  Level FlightAware ADS-B
Tue 08:10:36 AM 40.9040 4.4140 104° East 511 588 36,000  Level FlightAware ADS-B
Tue 08:11:16 AM 40.8810 4.5380 104° East 510 587 36,000  Level FlightAware ADS-B
Tue 08:12:07 AM 40.8590 4.6660 103° East 514 592 36,000  Level FlightAware ADS-B
Tue 08:12:58 AM 40.8380 4.8320 99° East 513 590 36,000  Level FlightAware ADS-B
Tue 08:13:35 AM 40.8250 4.9290 100° East 513 590 36,000  Level FlightAware ADS-B
Tue 08:14:43 AM 40.8160 5.1310 93° East 516 594 36,000  Level FlightAware ADS-B
Tue 08:15:19 AM 40.8080 5.2270 96° East 516 594 36,000  Level FlightAware ADS-B
Tue 08:16:16 AM 40.7840 5.4360 99° East 520 598 36,000  Level FlightAware ADS-B
Tue 08:16:52 AM 40.7750 5.5330 97° East 520 598 36,000  Level FlightAware ADS-B
Tue 08:17:59 AM 40.7490 5.7920 97° East 36,000  Level FlightAware ADS-B
Tue 08:18:45 AM 40.7370 5.9030 98° East 524 603 36,000  Level FlightAware ADS-B
Tue 08:19:24 AM 40.7210 6.0650 97° East 524 603 36,000  Level FlightAware ADS-B
Tue 08:20:09 AM 40.7050 6.2100 98° East 524 603 36,000  Level FlightAware ADS-B
Tue 08:20:50 AM 40.6920 6.3340 98° East 524 603 36,000  Level FlightAware ADS-B
Tue 08:21:35 AM 40.6770 6.4800 98° East 525 604 36,000  Level FlightAware ADS-B
Tue 08:22:10 AM 40.6650 6.5900 98° East 525 604 36,000  Level FlightAware ADS-B
Tue 08:23:00 AM 40.6470 6.7490 98° East 525 604 36,000  Level FlightAware ADS-B
Tue 08:23:36 AM 40.6350 6.8630 98° East 524 603 36,000  Level FlightAware ADS-B
Tue 08:24:22 AM 40.6180 7.0080 99° East 524 603 36,000  Level FlightAware ADS-B
Tue 08:25:01 AM 40.6040 7.1340 98° East 524 603 36,000  Level FlightAware ADS-B
Tue 08:25:47 AM 40.5880 7.2730 99° East 525 604 36,000  Level FlightAware ADS-B
Tue 08:26:26 AM 40.5710 7.4020 100° East 525 604 36,000  Level FlightAware ADS-B
Tue 08:27:06 AM 40.5540 7.5240 100° East 524 603 36,000  Level FlightAware ADS-B
Tue 08:27:51 AM 40.5340 7.6680 100° East 523 602 36,000  Level FlightAware ADS-B
Tue 08:28:31 AM 40.5170 7.7900 100° East 525 604 36,000  Level FlightAware ADS-B
Tue 08:29:11 AM 40.4990 7.9160 101° East 525 604 36,000  Level FlightAware ADS-B
Tue 08:29:56 AM 40.4790 8.0610 100° East 526 605 36,000  Level FlightAware ADS-B
Tue 08:30:36 AM 40.4620 8.1830 100° East 526 605 36,000  Level FlightAware ADS-B
Tue 08:31:21 AM 40.4410 8.3270 101° East 527 606 36,000  Level FlightAware ADS-B
Tue 08:32:02 AM 40.4230 8.4530 101° East 526 605 36,000  Level FlightAware ADS-B
Tue 08:32:37 AM 40.4070 8.5650 101° East 526 605 36,000  Level FlightAware ADS-B
Tue 08:33:22 AM 40.3860 8.7030 101° East 525 604 36,000  Level FlightAware ADS-B
Tue 08:34:02 AM 40.3680 8.8270 101° East 523 602 36,000 141 Level FlightAware ADS-B
Tue 08:34:47 AM 40.3470 8.9710 101° East 526 605 36,200 706 Climbing FlightAware ADS-B
Tue 08:35:27 AM 40.3290 9.0890 101° East 527 606 37,000 600 Climbing FlightAware ADS-B
Tue 08:36:07 AM 40.3090 9.2210 101° East 527 606 37,000  Level FlightAware ADS-B
Tue 08:36:47 AM 40.2900 9.3430 102° East 526 605 37,000  Level FlightAware ADS-B
Tue 08:37:27 AM 40.2710 9.4710 101° East 525 604 37,000  Level FlightAware ADS-B
Tue 08:38:03 AM 40.2540 9.5810 101° East 525 604 37,000  Level FlightAware ADS-B
Tue 08:38:48 AM 40.2310 9.7240 102° East 527 606 37,000  Level FlightAware ADS-B
Tue 08:39:33 AM 40.2090 9.8650 102° East 528 608 37,000  Level FlightAware ADS-B
Tue 08:40:14 AM 40.1890 9.9910 102° East 528 608 37,000  Level FlightAware ADS-B
Tue 08:40:54 AM 40.1690 10.1190 102° East 528 608 37,000  Level FlightAware ADS-B
Tue 08:41:34 AM 40.1490 10.2410 102° East 529 609 37,000  Level FlightAware ADS-B
Tue 08:42:14 AM 40.1280 10.3700 102° East 529 609 37,000  Level FlightAware ADS-B
Tue 08:42:54 AM 40.1080 10.4920 102° East 532 612 37,000  Level FlightAware ADS-B
Tue 08:43:34 AM 40.0870 10.6210 102° East 532 612 37,000  Level FlightAware ADS-B
Tue 08:44:14 AM 40.0670 10.7440 102° East 534 615 37,000  Level FlightAware ADS-B
Tue 08:44:54 AM 40.0460 10.8690 102° East 535 616 37,000  Level FlightAware ADS-B
Tue 08:45:34 AM 40.0240 10.9990 102° East 537 618 37,000  Level FlightAware ADS-B
Tue 08:46:30 AM 39.9950 11.1730 102° East 538 619 37,000  Level FlightAware ADS-B
Tue 08:47:10 AM 39.9770 11.3040 100° East 537 618 37,000  Level FlightAware ADS-B
Tue 08:47:51 AM 39.9600 11.4290 100° East 540 621 37,000  Level FlightAware ADS-B
Tue 08:48:35 AM 39.9390 11.5730 101° East 541 623 37,000  Level FlightAware ADS-B
Tue 08:49:15 AM 39.9210 11.7010 100° East 541 623 37,000  Level FlightAware ADS-B
Tue 08:49:54 AM 39.9010 11.8320 101° East 541 623 37,000  Level FlightAware ADS-B
Tue 08:50:34 AM 39.8820 11.9600 101° East 540 621 37,000  Level FlightAware ADS-B
Tue 08:51:14 AM 39.8640 12.0840 101° East 539 620 37,000  Level FlightAware ADS-B
Tue 08:51:50 AM 39.8460 12.1980 102° East 538 619 37,000  Level FlightAware ADS-B
Tue 08:52:38 AM 39.8230 12.3530 101° East 533 613 37,000  Level FlightAware ADS-B
Tue 08:53:14 AM 39.8060 12.4630 101° East 530 610 37,000  Level FlightAware ADS-B
Tue 08:53:55 AM 39.7870 12.5870 101° East 528 608 37,000  Level FlightAware ADS-B
Tue 08:54:35 AM 39.7680 12.7110 101° East 528 608 37,000  Level FlightAware ADS-B
Tue 08:55:15 AM 39.7470 12.8420 102° East 528 608 37,000  Level FlightAware ADS-B
Tue 08:55:59 AM 39.7260 12.9780 101° East 528 608 37,000  Level FlightAware ADS-B
Tue 08:56:43 AM 39.7040 13.1120 102° East 527 606 37,000  Level FlightAware ADS-B
Tue 08:57:24 AM 39.6840 13.2390 102° East 526 605 37,000  Level FlightAware ADS-B
Tue 08:58:07 AM 39.6630 13.3710 102° East 526 605 37,000  Level FlightAware ADS-B
Tue 08:58:49 AM 39.6420 13.5010 102° East 526 605 37,000  Level FlightAware ADS-B
Tue 08:59:29 AM 39.6220 13.6240 102° East 525 604 37,000  Level FlightAware ADS-B
Tue 08:59:57 AM 39.6070 13.7130 102° East 524 603 37,000  Level FlightAware ADS-B
Tue 09:00:41 AM 39.5840 13.8480 102° East 523 602 37,000  Level FlightAware ADS-B
Tue 09:01:21 AM 39.5640 13.9710 102° East 522 601 37,000  Level FlightAware ADS-B
Tue 09:02:05 AM 39.5420 14.1020 102° East 522 601 37,000  Level FlightAware ADS-B
Tue 09:02:45 AM 39.5210 14.2270 102° East 522 601 37,000  Level FlightAware ADS-B
Tue 09:03:27 AM 39.4930 14.3540 106° East 526 605 37,000  Level FlightAware ADS-B
Tue 09:04:09 AM 39.4350 14.4580 126° Southeast 525 604 37,000  Level FlightAware ADS-B
Tue 09:04:49 AM 39.3730 14.5500 131° Southeast 525 604 37,000  Level FlightAware ADS-B
Tue 09:05:33 AM 39.2990 14.6550 132° Southeast 524 603 37,000  Level FlightAware ADS-B
Tue 09:06:17 AM 39.2270 14.7600 131° Southeast 523 602 37,000  Level FlightAware ADS-B
Tue 09:06:57 AM 39.1630 14.8530 132° Southeast 522 601 37,000  Level FlightAware ADS-B
Tue 09:07:42 AM 39.0910 14.9580 131° Southeast 522 601 37,000  Level FlightAware ADS-B
Tue 09:08:22 AM 39.0270 15.0510 132° Southeast 521 600 37,000  Level FlightAware ADS-B
Tue 09:09:05 AM 38.9690 15.1570 125° Southeast 523 602 37,000  Level FlightAware ADS-B
Tue 09:09:40 AM 38.9250 15.2510 121° Southeast 523 602 37,000  Level FlightAware ADS-B
Tue 09:10:19 AM 38.8750 15.3570 121° Southeast 524 603 37,000  Level FlightAware ADS-B
Tue 09:11:02 AM 38.8220 15.4680 121° Southeast 523 602 37,000  Level FlightAware ADS-B
Tue 09:11:46 AM 38.7700 15.5870 119° Southeast 523 602 37,000  Level FlightAware ADS-B
Tue 09:12:28 AM 38.7230 15.7030 117° Southeast 523 602 37,000  Level FlightAware ADS-B
Tue 09:13:04 AM 38.6900 15.7850 117° Southeast 523 602 37,000  Level FlightAware ADS-B
Tue 09:13:50 AM 38.6410 15.9360 113° Southeast 521 600 37,000  Level FlightAware ADS-B
Tue 09:14:34 AM 38.6240 16.0660 99° East 520 598 37,000  Level FlightAware ADS-B
Tue 09:15:14 AM 38.6090 16.1840 99° East 519 597 37,000  Level FlightAware ADS-B
Tue 09:15:58 AM 38.5920 16.3240 99° East 521 600 37,000  Level FlightAware ADS-B
Tue 09:16:38 AM 38.5780 16.4460 98° East 523 602 37,000  Level FlightAware ADS-B
Tue 09:17:22 AM 38.5610 16.5800 99° East 523 602 37,000  Level FlightAware ADS-B
Tue 09:17:58 AM 38.5490 16.6900 98° East 523 602 37,000  Level FlightAware ADS-B
Tue 09:18:46 AM 38.5320 16.8340 99° East 525 604 37,000  Level FlightAware ADS-B
Tue 09:19:27 AM 38.5180 16.9600 98° East 528 608 37,000  Level FlightAware ADS-B
Tue 09:20:11 AM 38.5040 17.0960 97° East 529 609 37,000  Level FlightAware ADS-B
Tue 09:20:52 AM 38.4900 17.2230 98° East 529 609 37,000  Level FlightAware ADS-B
Tue 09:21:34 AM 38.4760 17.3560 98° East 530 610 37,000  Level FlightAware ADS-B
Tue 09:22:14 AM 38.4630 17.4800 98° East 530 610 37,000  Level FlightAware ADS-B
Tue 09:22:54 AM 38.4500 17.6030 98° East 530 610 37,000  Level FlightAware ADS-B
Tue 09:23:40 AM 38.4350 17.7460 98° East 529 609 37,000  Level FlightAware ADS-B
Tue 09:24:20 AM 38.4230 17.8660 97° East 529 609 37,000  Level FlightAware ADS-B
Tue 09:25:02 AM 38.4100 17.9990 97° East 528 608 37,000  Level FlightAware ADS-B
Tue 09:25:38 AM 38.3990 18.1070 97° East 528 608 37,000  Level FlightAware ADS-B
Tue 09:26:22 AM 38.3860 18.2460 97° East 528 608 37,000  Level FlightAware ADS-B
Tue 09:27:02 AM 38.3740 18.3660 97° East 530 610 37,000  Level FlightAware ADS-B
Tue 09:27:38 AM 38.3630 18.4800 97° East 530 610 37,000  Level FlightAware ADS-B
Tue 09:28:18 AM 38.3500 18.6040 98° East 531 611 37,000  Level FlightAware ADS-B
Tue 09:29:02 AM 38.3360 18.7370 98° East 532 612 37,000  Level FlightAware ADS-B
Tue 09:29:40 AM 38.3230 18.8580 98° East 533 613 37,000  Level FlightAware ADS-B
Tue 09:30:18 AM 38.2960 18.9710 107° East 529 609 37,000  Level FlightAware ADS-B
Tue 09:31:10 AM 38.2700 19.1050 104° East 529 609 37,000  Level FlightAware ADS-B
Tue 09:31:47 AM 38.2420 19.1950 112° Southeast 530 610 37,000  Level FlightAware ADS-B
Tue 09:32:19 AM 38.2160 19.2920 109° East 530 610 37,000  Level FlightAware ADS-B
Tue 09:33:04 AM 38.1780 19.4270 110° East 532 612 37,000  Level FlightAware ADS-B
Tue 09:33:43 AM 38.1480 19.5330 110° East 532 612 37,000  Level FlightAware ADS-B
Tue 09:34:33 AM 38.1070 19.6740 110° East 533 613 37,000  Level FlightAware ADS-B
Tue 09:35:16 AM 38.0690 19.8060 110° East 534 615 37,000  Level FlightAware ADS-B
Tue 09:36:00 AM 38.0210 19.9730 110° East 533 613 37,000  Level FlightAware ADS-B
Tue 09:36:39 AM 37.9870 20.0910 110° East 535 616 37,000  Level FlightAware ADS-B
Tue 09:37:27 AM 37.9460 20.2320 110° East 537 618 37,000  Level FlightAware ADS-B
Tue 09:38:00 AM 37.9180 20.3300 110° East 539 620 37,000  Level FlightAware ADS-B
Tue 09:38:52 AM 37.8800 20.4610 110° East 539 620 37,000  Level FlightAware ADS-B
Tue 09:39:32 AM 37.8380 20.6060 110° East 542 624 37,000  Level FlightAware ADS-B
Tue 09:39:54 AM 37.8190 20.6710 110° East 541 623 37,000  Level FlightAware ADS-B
Tue 09:41:04 AM 37.7570 20.8750 111° Southeast 542 624 37,000  Level FlightAware ADS-B
Tue 09:41:48 AM 37.7190 21.0060 110° East 542 624 37,000  Level FlightAware ADS-B
Tue 09:42:25 AM 37.6870 21.1130 111° Southeast 542 624 37,000  Level FlightAware ADS-B
Tue 09:43:05 AM 37.6330 21.2240 122° Southeast 529 609 37,000  Level FlightAware ADS-B
Tue 09:43:45 AM 37.5760 21.3240 126° Southeast 531 611 37,000  Level FlightAware ADS-B
Tue 09:44:29 AM 37.5180 21.4380 123° Southeast 528 608 37,000  Level FlightAware ADS-B
Tue 09:45:11 AM 37.4630 21.5440 123° Southeast 525 604 37,000  Level FlightAware ADS-B
Tue 09:45:51 AM 37.4120 21.6470 122° Southeast 523 602 37,000  Level FlightAware ADS-B
Tue 09:46:33 AM 37.3570 21.7570 122° Southeast 521 600 37,000  Level FlightAware ADS-B
Tue 09:47:23 AM 37.2930 21.8830 123° Southeast 518 596 37,000  Level FlightAware ADS-B
Tue 09:48:00 AM 37.2460 21.9770 122° Southeast 518 596 37,000  Level FlightAware ADS-B
Tue 09:48:49 AM 37.1860 22.1060 120° Southeast 525 604 37,000  Level FlightAware ADS-B
Tue 09:49:21 AM 37.1630 22.1970 108° East 530 610 37,000  Level FlightAware ADS-B
Tue 09:50:03 AM 37.1230 22.3150 113° Southeast 525 604 37,000  Level FlightAware ADS-B
Tue 09:50:45 AM 37.0870 22.4340 111° Southeast 525 604 37,000  Level FlightAware ADS-B
Tue 09:51:22 AM 37.0560 22.5390 110° East 526 605 37,000  Level FlightAware ADS-B
Tue 09:52:03 AM 37.0210 22.6600 110° East 528 608 37,000  Level FlightAware ADS-B
Tue 09:52:48 AM 36.9840 22.7840 110° East 530 610 37,000  Level FlightAware ADS-B
Tue 09:53:30 AM 36.9480 22.9080 110° East 534 615 37,000  Level FlightAware ADS-B
Tue 09:54:09 AM 36.9160 23.0150 110° East 535 616 37,000  Level FlightAware ADS-B
Tue 09:54:51 AM 36.8790 23.1430 110° East 537 618 37,000  Level FlightAware ADS-B
Tue 09:55:35 AM 36.8400 23.2730 111° Southeast 536 617 37,000  Level FlightAware ADS-B
Tue 09:56:11 AM 36.8110 23.3710 110° East 534 615 37,000  Level FlightAware ADS-B
Tue 09:56:51 AM 36.7750 23.4890 111° Southeast 533 613 37,000  Level FlightAware ADS-B
Tue 09:57:31 AM 36.7400 23.6040 111° Southeast 532 612 37,000  Level FlightAware ADS-B
Tue 09:58:11 AM 36.7050 23.7220 110° East 531 611 37,000  Level FlightAware ADS-B
Tue 09:58:55 AM 36.6670 23.8480 111° Southeast 532 612 37,000  Level FlightAware ADS-B
Tue 09:59:37 AM 36.6300 23.9650 111° Southeast 532 612 37,000  Level FlightAware ADS-B
Tue 10:00:19 AM 36.5930 24.0880 111° Southeast 530 610 37,000  Level FlightAware ADS-B
Tue 10:01:05 AM 36.5530 24.2190 111° Southeast 529 609 37,000  Level FlightAware ADS-B
Tue 10:01:45 AM 36.5190 24.3300 111° Southeast 528 608 37,000  Level FlightAware ADS-B
Tue 10:02:29 AM 36.4790 24.4570 111° Southeast 528 608 37,000  Level FlightAware ADS-B
Tue 10:03:07 AM 36.4460 24.5640 111° Southeast 528 608 37,000  Level FlightAware ADS-B
Tue 10:03:51 AM 36.4070 24.6890 111° Southeast 529 609 37,000  Level FlightAware ADS-B
Tue 10:04:31 AM 36.3720 24.7990 112° Southeast 530 610 37,000  Level FlightAware ADS-B
Tue 10:05:11 AM 36.3350 24.9150 112° Southeast 530 610 37,000  Level FlightAware ADS-B
Tue 10:05:57 AM 36.2940 25.0450 111° Southeast 531 611 37,000  Level FlightAware ADS-B
Tue 10:06:37 AM 36.2580 25.1590 111° Southeast 532 612 37,000  Level FlightAware ADS-B
Tue 10:07:22 AM 36.2180 25.2830 112° Southeast 532 612 37,000  Level FlightAware ADS-B
Tue 10:08:03 AM 36.1800 25.3990 112° Southeast 532 612 37,000  Level FlightAware ADS-B
Tue 10:08:43 AM 36.1450 25.5120 111° Southeast 532 612 37,000  Level FlightAware ADS-B
Tue 10:09:27 AM 36.1040 25.6370 112° Southeast 531 611 37,000  Level FlightAware ADS-B
Tue 10:10:11 AM 36.0630 25.7640 112° Southeast 529 609 37,000  Level FlightAware ADS-B
Tue 10:10:51 AM 36.0270 25.8750 112° Southeast 527 606 37,000  Level FlightAware ADS-B
Tue 10:11:23 AM 35.9980 25.9640 112° Southeast 524 603 37,000  Level FlightAware ADS-B
Tue 10:12:06 AM 35.9680 26.0530 113° Southeast 524 603 37,000  Level FlightAware ADS-B
Tue 10:12:47 AM 35.9210 26.1970 112° Southeast 524 603 37,000  Level FlightAware ADS-B
Tue 10:13:31 AM 35.8820 26.3160 112° Southeast 525 604 37,000  Level FlightAware ADS-B
Tue 10:14:11 AM 35.8440 26.4270 113° Southeast 527 606 37,000  Level FlightAware ADS-B
Tue 10:14:55 AM 35.8030 26.5520 112° Southeast 530 610 37,000  Level FlightAware ADS-B
Tue 10:15:35 AM 35.7660 26.6640 112° Southeast 531 611 37,000  Level FlightAware ADS-B
Tue 10:16:14 AM 35.7350 26.7560 113° Southeast 532 612 37,000  Level FlightAware ADS-B
Tue 10:17:00 AM 35.6990 26.8660 112° Southeast 532 612 37,000  Level FlightAware ADS-B
Tue 10:17:36 AM 35.6710 26.9520 112° Southeast 532 612 37,000  Level FlightAware ADS-B
Tue 10:18:14 AM 35.6410 27.0420 112° Southeast 532 612 37,000  Level FlightAware ADS-B
Tue 10:19:03 AM 35.6030 27.1590 112° Southeast 532 612 37,000  Level FlightAware ADS-B
Tue 10:19:52 AM 35.5640 27.2760 112° Southeast 532 612 37,000  Level FlightAware ADS-B
Tue 10:20:26 AM 35.5380 27.3570 112° Southeast 532 612 37,000  Level FlightAware ADS-B
Tue 10:21:28 AM 35.4890 27.5050 112° Southeast 532 612 37,000  Level FlightAware ADS-B
Tue 10:22:30 AM 35.3720 27.8140 115° Southeast 532 612 37,000  Level FlightAware ADS-B
Tue 10:23:34 AM 35.3170 27.9710 113° Southeast 531 611 37,000  Level FlightAware ADS-B
Tue 10:24:23 AM 35.2610 28.1310 113° Southeast 529 609 37,000  Level FlightAware ADS-B
Tue 10:24:58 AM 35.2280 28.2250 113° Southeast 527 606 37,000  Level FlightAware ADS-B
Tue 10:25:49 AM 35.1780 28.3640 114° Southeast 525 604 37,000  Level FlightAware ADS-B
Tue 10:26:23 AM 35.1450 28.4560 114° Southeast 524 603 37,000  Level FlightAware ADS-B
Tue 10:27:03 AM 35.1070 28.5640 113° Southeast 523 602 37,000  Level FlightAware ADS-B
Tue 10:28:00 AM 35.0580 28.7040 113° Southeast 523 602 37,000  Level FlightAware ADS-B
Tue 10:28:54 AM 35.0070 28.8440 114° Southeast 523 602 37,000  Level FlightAware ADS-B
Tue 10:29:18 AM 34.9880 28.8990 113° Southeast 523 602 37,000  Level FlightAware ADS-B
Tue 10:30:07 AM 34.9490 29.0130 113° Southeast 523 602 37,000  Level FlightAware ADS-B
Tue 10:30:41 AM 34.9210 29.0910 114° Southeast 523 602 37,000  Level FlightAware ADS-B
Tue 10:31:30 AM 34.8820 29.2040 113° Southeast 523 602 37,000  Level FlightAware ADS-B
Tue 10:32:23 AM 34.7960 29.4220 116° Southeast 522 601 37,000  Level FlightAware ADS-B
Tue 10:33:07 AM 34.7520 29.5460 113° Southeast 522 601 37,000  Level FlightAware ADS-B
Tue 10:33:43 AM 34.7160 29.6420 115° Southeast 521 600 37,000  Level FlightAware ADS-B
Tue 10:34:32 AM 34.6670 29.7750 114° Southeast 519 597 37,000  Level FlightAware ADS-B
Tue 10:35:24 AM 34.6220 29.8980 114° Southeast 519 597 37,000  Level FlightAware ADS-B
Tue 10:36:08 AM 34.5670 30.0090 121° Southeast 509 586 37,000  Level FlightAware ADS-B
Tue 10:36:49 AM 34.5180 30.1110 120° Southeast 512 589 37,000  Level FlightAware ADS-B
Tue 10:37:34 AM 34.4600 30.2320 120° Southeast 510 587 37,000  Level FlightAware ADS-B
Tue 10:38:09 AM 34.4190 30.3190 120° Southeast 505 581 37,000  Level FlightAware ADS-B
Tue 10:38:45 AM 34.3770 30.4080 120° Southeast 505 581 37,000  Level FlightAware ADS-B
Tue 10:39:30 AM 34.3260 30.5140 120° Southeast 505 581 37,000  Level FlightAware ADS-B
Tue 10:40:10 AM 34.2770 30.6170 120° Southeast 503 579 37,000  Level FlightAware ADS-B
Tue 10:40:45 AM 34.2390 30.6950 120° Southeast 500 575 37,000  Level FlightAware ADS-B
Tue 10:41:29 AM 34.1850 30.8060 120° Southeast 494 568 37,000  Level FlightAware ADS-B
Tue 10:42:10 AM 34.1380 30.9020 121° Southeast 492 566 37,000  Level FlightAware ADS-B
Tue 10:42:49 AM 34.0910 31.0000 120° Southeast 491 565 37,000  Level FlightAware ADS-B
Tue 10:43:30 AM 34.0440 31.0950 121° Southeast 490 564 37,000  Level FlightAware ADS-B
Tue 10:44:09 AM 33.9980 31.1900 120° Southeast 492 566 37,000  Level FlightAware ADS-B
Tue 10:44:55 AM 33.9440 31.3020 120° Southeast 493 567 37,000  Level FlightAware ADS-B
Tue 10:45:35 AM 33.8990 31.3930 121° Southeast 494 568 37,000  Level FlightAware ADS-B
Tue 10:46:15 AM 33.8510 31.4910 121° Southeast 494 568 37,000  Level FlightAware ADS-B
Tue 10:47:02 AM 33.7970 31.6010 121° Southeast 494 568 37,000  Level FlightAware ADS-B
Tue 10:47:32 AM 33.7610 31.6720 121° Southeast 499 574 37,000  Level FlightAware ADS-B
Tue 10:48:17 AM 33.7070 31.7820 121° Southeast 501 577 37,000  Level FlightAware ADS-B
Tue 10:48:56 AM 33.6610 31.8750 121° Southeast 500 575 37,000  Level FlightAware ADS-B
Tue 10:49:41 AM 33.6080 31.9790 121° Southeast 498 573 37,000  Level FlightAware ADS-B
Tue 10:50:24 AM 33.5590 32.0770 121° Southeast 497 572 37,000  Level FlightAware ADS-B
Tue 10:51:02 AM 33.5140 32.1660 121° Southeast 497 572 37,000  Level FlightAware ADS-B
Tue 10:51:47 AM 33.4590 32.2770 121° Southeast 497 572 37,000  Level FlightAware ADS-B
Tue 10:52:32 AM 33.4030 32.3880 121° Southeast 497 572 37,000  Level FlightAware ADS-B
Tue 10:53:13 AM 33.3570 32.4790 121° Southeast 496 571 37,000  Level FlightAware ADS-B
Tue 10:53:51 AM 33.3110 32.5690 121° Southeast 498 573 37,000 -1,275 Level FlightAware ADS-B
Tue 10:54:33 AM 33.2600 32.6700 121° Southeast 497 572 35,300 -2,415 Descending FlightAware ADS-B
Tue 10:55:13 AM 33.2120 32.7640 121° Southeast 491 565 33,700 -2,302 Descending FlightAware ADS-B
Tue 10:55:59 AM 33.1580 32.8690 122° Southeast 483 556 32,000 -2,125 Descending FlightAware ADS-B
Tue 10:56:49 AM 33.1050 32.9720 122° Southeast 470 541 30,300 -2,204 Descending FlightAware ADS-B
Tue 10:57:37 AM 33.0450 33.0890 121° Southeast 459 528 28,400 -2,157 Descending FlightAware ADS-B
Tue 10:58:18 AM 33.0030 33.1720 121° Southeast 447 514 27,100 -1,959 Descending FlightAware ADS-B
Tue 10:59:15 AM 32.9350 33.2890 125° Southeast 427 491 25,200 -1,851 Descending FlightAware ADS-B
Tue 10:59:52 AM 32.8940 33.3560 126° Southeast 415 478 24,200 -1,671 Descending FlightAware ADS-B
Tue 11:00:34 AM 32.8480 33.4330 125° Southeast 408 470 23,000 -1,724 Descending FlightAware ADS-B
Tue 11:01:19 AM 32.7980 33.5170 125° Southeast 411 473 21,700 -1,724 Descending FlightAware ADS-B
Tue 11:02:01 AM 32.7540 33.5930 125° Southeast 394 453 20,500 -1,674 Descending FlightAware ADS-B
Tue 11:02:45 AM 32.7080 33.6690 126° Southeast 378 435 19,300 -1,586 Descending FlightAware ADS-B
Tue 11:03:28 AM 32.6650 33.7410 125° Southeast 366 421 18,200 -1,586 Descending FlightAware ADS-B
Tue 11:04:12 AM 32.6200 33.8160 125° Southeast 380 437 17,000 -1,610 Descending FlightAware ADS-B
Tue 11:04:50 AM 32.5810 33.8800 126° Southeast 376 433 16,000 -1,556 Descending FlightAware ADS-B
Tue 11:05:33 AM 32.5390 33.9510 125° Southeast 374 430 14,900 -1,500 Descending FlightAware ADS-B
Tue 11:06:14 AM 32.4970 34.0210 125° Southeast 371 427 13,900 -1,558 Descending FlightAware ADS-B
Tue 11:06:50 AM 32.4620 34.0800 125° Southeast 361 415 12,900 -1,538 Descending FlightAware ADS-B
Tue 11:07:32 AM 32.4220 34.1450 126° Southeast 349 402 11,900 -1,011 Descending FlightAware ADS-B
Tue 11:08:19 AM 32.3830 34.2100 125° Southeast 344 396 11,400 -357 Descending FlightAware ADS-B
Tue 11:08:56 AM 32.3540 34.2580 126° Southeast 344 396 11,400  Level FlightAware ADS-B
Tue 11:09:44 AM 32.3170 34.3210 125° Southeast 344 396 11,400 -1,131 Level FlightAware ADS-B
Tue 11:12:00 AM 32.1238 34.6326 125° Southeast  Level FlightAware Approximate
Tue 11:13:00 AM 32.0518 34.7789 115° Southeast  Level FlightAware Approximate
Tue 11:14:00 AM 32.0000 34.8667 125° Southeast  Level FlightAware Approximate
Tue 11:14:25 AM 32.1120 34.6840 125° Southeast 273 314 5,200  Level FlightAware ADS-B
Tue 11:14:54 AM 32.0900 34.7230 124° Southeast 271 312 5,200  Level FlightAware ADS-B
Tue 11:15:06 AM 32.0820 34.7380 122° Southeast 274 315 5,200 150 Level FlightAware ADS-B
Tue 11:15:34 AM 32.0620 34.7710 126° Southeast 256 295 5,300 -130 Climbing FlightAware ADS-B
Tue 11:15:52 AM 32.0480 34.7890 133° Southeast 247 284 5,100 -571 Descending FlightAware ADS-B
Tue 11:16:16 AM 32.0290 34.8110 136° Southeast 221 254 4,900 -333 Descending FlightAware ADS-B
Tue 11:16:46 AM 32.0080 34.8340 137° Southeast 207 238 4,800 -429 Descending FlightAware ADS-B
Tue 11:16:58 AM 31.9990 34.8450 134° Southeast 204 235 4,600 -1,297 Descending FlightAware ADS-B
Tue 11:17:23 AM 31.9840 34.8620 136° Southeast 205 236 4,000 -1,463 Descending FlightAware ADS-B
Tue 11:17:39 AM 31.9740 34.8770 128° Southeast 202 232 3,600 -1,385 Descending FlightAware ADS-B
Tue 11:17:49 AM 31.9730 34.8890 96° East 197 227 3,400 -1,050 Descending FlightAware ADS-B
Tue 11:18:19 AM 31.9780 34.9180 79° East 179 206 2,900 -900 Descending FlightAware ADS-B
Tue 11:18:49 AM 31.9840 34.9430 74° East 171 197 2,500 -869 Descending FlightAware ADS-B
Tue 11:20:44 AM 32.0220 34.9180 294° West 147 169 800 -711 Descending FlightAware ADS-B
Tue 11:21:00 AM 32.0095 34.8769 294° West  Level Estimated
Tue 11:21:21 AM 32.0180 34.8940 259° West 147 169 700  Level FlightAware ADS-B
Tue 11:21:26 AM 32.0160 34.8840 257° West 135 155 -8,400 Descending FlightAware ADS-B
Tue 11:21:56 AM 32.0140 34.8710 260° West 46 53  Level FlightAware ADS-B
Tue 11:22:08 AM 32.0140 34.8690 270° West 32 37  Level FlightAware ADS-B
Tue 11:22:32 AM 32.0130 34.8660 249° West 13 15  Level FlightAware ADS-B
Tue 11:23:13 AM 32.0120 34.8680 121° Southeast 15 17  Level FlightAware ADS-B
Tue 11:23:30 AM 32.0110 34.8690 140° Southeast 18 21  Level FlightAware ADS-B
Tue 11:23:59 AM 32.0100 34.8710 121° Southeast 16 18  Level FlightAware ADS-B
Tue 11:24:25 AM 32.0090 34.8730 121° Southeast 11 13  Level FlightAware ADS-B
Tue 11:24:37 AM 32.0080 34.8740 140° Southeast 7 8  Level FlightAware ADS-B
Tue 11:25:07 AM 32.0080 34.8730 270° West 10 12  Level FlightAware ADS-B
Tue 11:26:02 AM 32.0070 34.8720 220° Southwest 3 3  Level FlightAware ADS-B

Login

Don't have an account? Register now (free) for customized features, flight alerts, and more!